Terminal Aerodrome Forecast
Issued by NWS

Home | Current Version | Previous Version | Graphics & Text | Print | Product List | Glossary On
Versions: 1 2 3 4 5 6 7 8 9 10 11 12 13 14 15 16 17 18 19 20 21 22 23 24 25 26 27
000
FTUS43 KGRB 200525
TAFATW
TAF
KATW 200525Z 2006/2106 06005KT 1SM BR OVC002
      TEMPO 2007/2010 3SM SCT003 BKN050
     FM201000 05006KT 1SM -RA BR OVC002
     FM201200 06003KT 1SM -RA BR OVC003
     FM201700 07006KT 3SM BR SCT004 OVC020
     FM202300 09003KT 5SM BR SCT005 BKN012=

USA.gov is the U.S. government's official web portal to all federal, state and local government web resources and services.